Nearby METAR Reports

 

KMEV - Minden, Nevada, USA
Distance from station: N 3mi, 5km
Updated: Fri, 14-Dec-2018 6:55am PST
Clear
Clear
 Wind from W
Wind: W 3 mph , 6 km/h
Temperature: 19°F , -7°C
Dew Point: 19°F , -7°C
Humidity: 100%
Barometer: 30.15 inHg , 1021 hPa
Clouds: Clear
Visibility: 10 miles , 16 km
2018/12/14 14:55 KMEV 141455Z AUTO 27003KT 10SM CLR M07/M07 A3015 RMK AO2
KCXP - Carson City, Nevada, USA
Distance from station: N 10mi, 16km
Updated: Fri, 14-Dec-2018 6:55am PST
Clear
Clear
 Wind from calm
Wind: Calm
Temperature: 25°F , -4°C
Dew Point: 21°F , -6°C
Humidity: 86%
Barometer: 30.16 inHg , 1021.3 hPa
Clouds: Clear
Visibility: 10 miles , 16 km
2018/12/14 14:55 KCXP 141455Z AUTO 00000KT 10SM CLR M04/M06 A3016 RMK AO2
 
KTVL - South Lake Tahoe, California, USA
Distance from station: WSW 18mi, 29km
Updated: Fri, 14-Dec-2018 6:53am PST
Clear
Clear
 Wind from calm
Wind: Calm
Temperature: 25°F , -4°C
Dew Point: 18°F , -8°C
Humidity: 74%
Barometer: 30.13 inHg , 1020.3 hPa
Clouds: Clear
Visibility: 10 miles , 16 km
2018/12/14 14:53 KTVL 141453Z AUTO 00000KT 10SM CLR M04/M08 A3013 RMK AO2 SLP219 T10391083 56013 $
KTRK - Truckee Tahoe, California, USA
Distance from station: NW 29mi, 46km
Updated: Fri, 14-Dec-2018 6:45am PST
Mostly cloudy
Mostly cloudy
 Wind from N
Wind: N 3 mph , 6 km/h
Temperature: 19°F , -7°C
Dew Point: 18°F , -8°C
Humidity: 93%
Barometer: 30.14 inHg , 1020.7 hPa
Clouds: Mostly cloudy
Visibility: 10 miles , 16 km
Cloud details: Partly cloudy 14000 ft
Mostly cloudy 18000 ft
2018/12/14 14:45 KTRK 141445Z 35003KT 10SM SCT140 BKN180 M07/M08 A3014
 
KRNO - Reno, Nevada, USA
Distance from station: N 31mi, 50km
Updated: Fri, 14-Dec-2018 6:55am PST
Mostly cloudy
Mostly cloudy
 Wind from calm
Wind: Calm
Temperature: 30°F , -1°C
Dew Point: 25°F , -4°C
Humidity: 80%
Barometer: 30.15 inHg , 1021 hPa
Clouds: Mostly cloudy
Visibility: 10 miles , 16 km
Cloud details: Few Clouds 10000 ft
Few Clouds 15000 ft
Mostly cloudy 24000 ft
2018/12/14 14:55 KRNO 141455Z 00000KT 10SM FEW100 FEW150 BKN240 M01/M04 A3015 RMK AO2 SLP214 T10061044 56009
KRTS - Reno/Stead, Nevada, USA
Distance from station: NNW 44mi, 71km
Updated: Fri, 14-Dec-2018 6:55am PST
Clear
Clear
 Wind from N
Wind: N 5 mph , 7 km/h
Temperature: 25°F , -4°C
Wind Chill: 19°F , -7°C
Dew Point: 21°F , -6°C
Humidity: 86%
Barometer: 30.14 inHg , 1020.7 hPa
Clouds: Clear
Visibility: 10 miles , 16 km
2018/12/14 14:55 KRTS 141455Z AUTO 01004KT 10SM CLR M04/M06 A3014 RMK AO2
 
KBLU - Emigrant Gap, California, USA
Distance from station: WNW 55mi, 89km
Updated: Fri, 14-Dec-2018 6:52am PST
Clear
Clear
 Wind from S
Wind: S 10 mph , 17 km/h, Gust: 20 mph , 31 km/h
Temperature: 46°F , 8°C
Wind Chill: 41°F , 5°C
Dew Point: 7°F , -14°C
Humidity: 20%
Barometer: 30.14 inHg , 1020.7 hPa
Clouds: Clear
Visibility: 10 miles , 16 km
2018/12/14 14:52 KBLU 141452Z AUTO 17009G17KT 10SM CLR 08/M14 A3014 RMK AO2 SLP176 T00781144 56008
KPVF - Placerville, California, USA
Distance from station: WSW 60mi, 96km
Updated: Fri, 14-Dec-2018 6:55am PST
Clear
Clear
 Wind from SSE
Wind: SSE 9 mph , 15 km/h
Temperature: 52°F , 11°C
Dew Point: 14°F , -10°C
Humidity: 22%
Barometer: 30.08 inHg , 1018.6 hPa
Clouds: Clear
Visibility: 10 miles , 16 km
2018/12/14 14:55 KPVF 141455Z AUTO 15008KT 10SM CLR 11/M10 A3008 RMK AO1
 
KNFL - Fallon Nas, Nevada, USA
Distance from station: ENE 61mi, 97km
Updated: Fri, 14-Dec-2018 6:56am PST
Overcast
Overcast
 Wind from calm
Wind: Calm
Temperature: 25°F , -4°C
Dew Point: 21°F , -6°C
Humidity: 86%
Barometer: 30.17 inHg , 1021.7 hPa
Clouds: Overcast
Visibility: 10 miles , 16 km
Cloud details: Partly cloudy 15000 ft
Overcast 20000 ft
2018/12/14 14:56 KNFL 141456Z 00000KT 10SM SCT150 OVC200 M04/M06 A3017 RMK AO2 SLP180 T10441056 58010
KGOO - Grass Valley, California, USA
Distance from station: W 70mi, 112km
Updated: Fri, 14-Dec-2018 6:55am PST
Clear
Clear
 Wind from SE
Wind: SE 8 mph , 13 km/h
Temperature: 54°F , 12°C
Dew Point: 14°F , -10°C
Humidity: 21%
Barometer: 30.06 inHg , 1017.9 hPa
Clouds: Clear
Visibility: 10 miles , 16 km
2018/12/14 14:55 KGOO 141455Z AUTO 14007KT 10SM CLR 12/M10 A3006 RMK AO1
 
KAUN - Auburn Muni, California, USA
Distance from station: W 73mi, 118km
Updated: Fri, 14-Dec-2018 6:55am PST
Clear
Clear
 Wind from ESE
Wind: ESE 7 mph , 11 km/h
Temperature: 50°F , 10°C
Wind Chill: 47°F , 8°C
Dew Point: 28°F , -2°C
Humidity: 43%
Barometer: 30.04 inHg , 1017.3 hPa
Clouds: Clear
Visibility: 10 miles , 16 km
2018/12/14 14:55 KAUN 141455Z AUTO 11006KT 10SM CLR 10/M02 A3004 RMK A01
KO22 - Columbia, California, USA
Distance from station: SSW 79mi, 127km
Updated: Wed, 12-Dec-2018 10:55am PST
NOT Current
Clear
Clear
 Wind from WSW
Wind: WSW 5 mph , 7 km/h
Temperature: 54°F , 12°C
Dew Point: 37°F , 3°C
Humidity: 54%
Barometer: 30.24 inHg , 1024 hPa
Clouds: Clear
Visibility: 10 miles , 16 km
2018/12/12 18:55 KO22 121855Z AUTO 24004KT 10SM CLR 12/03 A3024 RMK A01
 
KLHM - Lincoln, California, USA
Distance from station: W 88mi, 141km
Updated: Fri, 14-Dec-2018 6:55am PST
Clear
Clear
 Wind from calm
Wind: Calm
Temperature: 41°F , 5°C
Dew Point: 37°F , 3°C
Humidity: 87%
Barometer: 30.06 inHg , 1017.9 hPa
Clouds: Clear
Visibility: 10 miles , 16 km
2018/12/14 14:55 KLHM 141455Z AUTO 00000KT 10SM CLR 05/03 A3006 RMK AO1
KBAB - Beale Afb/Marysv, California, USA
Distance from station: W 91mi, 147km
Updated: Fri, 14-Dec-2018 6:58am PST
Mostly cloudy
Mostly cloudy
 Wind from WSW
Wind: WSW 7 mph , 11 km/h
Temperature: 43°F , 6°C
Wind Chill: 39°F , 4°C
Dew Point: 39°F , 4°C
Humidity: 87%
Barometer: 30.05 inHg , 1017.6 hPa
Clouds: Mostly cloudy
Visibility: 10 miles , 16 km
Cloud details: Mostly cloudy 16000 ft
2018/12/14 14:58 KBAB 141458Z AUTO 24006KT 10SM BKN160 06/04 A3005 RMK AO2 SLP180 T00600038 58014 $
 
KMHR - Mather Field, California, USA
Distance from station: WSW 91mi, 147km
Updated: Fri, 14-Dec-2018 6:45am PST
Partly cloudy
Partly cloudy
 Wind from calm
Wind: Calm
Temperature: 43°F , 6°C
Dew Point: 41°F , 5°C
Humidity: 93%
Barometer: 30.06 inHg , 1017.9 hPa
Clouds: Partly cloudy
Visibility: 9 miles , 14 km
Cloud details: Partly cloudy 10000 ft
2018/12/14 14:45 KMHR 141445Z 00000KT 9SM SCT100 06/05 A3006
KLOL - Lovelock, Nevada, USA
Distance from station: NE 94mi, 151km
Updated: Fri, 14-Dec-2018 6:53am PST
Clear
Clear
 Wind from calm
Wind: Calm
Temperature: 21°F , -6°C
Dew Point: 18°F , -8°C
Humidity: 86%
Barometer: 30.18 inHg , 1022 hPa
Clouds: Clear
Visibility: 10 miles , 16 km
2018/12/14 14:53 KLOL 141453Z AUTO 00000KT 10SM CLR M06/M08 A3018 RMK AO2 SLP253 T10611078 56008
 
KMCC - Mcclellan Afb, California, USA
Distance from station: WSW 94mi, 151km
Updated: Fri, 14-Dec-2018 6:50am PST
Mist, Partly cloudy
Mist, Partly cloudy
 Wind from W
Wind: W 7 mph , 11 km/h
Temperature: 41°F , 5°C
Wind Chill: 36°F , 2°C
Dew Point: 41°F , 5°C
Humidity: 100%
Barometer: 30.12 inHg , 1020 hPa
Summary: Mist
Clouds: Partly cloudy
Visibility: 5 miles , 8 km
Cloud details: Few Clouds 1900 ft
Partly cloudy 2700 ft
2018/12/14 14:50 KMCC 141450Z AUTO 26006KT 5SM BR FEW019 SCT027 05/05 A3012 RMK AO2
KMYV - Marysville, California, USA
Distance from station: W 99mi, 159km
Updated: Fri, 14-Dec-2018 6:53am PST
Mist, Clear
Mist, Clear
 Wind from WSW
Wind: WSW 3 mph , 6 km/h
Temperature: 41°F , 5°C
Dew Point: 39°F , 4°C
Humidity: 93%
Barometer: 30.08 inHg , 1018.6 hPa
Summary: Mist
Clouds: Clear
Visibility: 6 miles , 10 km
2018/12/14 14:53 KMYV 141453Z AUTO 25003KT 6SM BR CLR 05/04 A3008 RMK AO2 SLP190 T00500039 57014
Honor Flight NV - Honoring all of our Veterans CoCoRaHS (Community Collaborative Rain, Hail and Snow Network) Station Number: NV-DG-2 Live Lightning Map - USA Reno Skywarn Spotter ID: DO21 AlertID Southwestern Weather Network Carson Valley Community Food Closet - providing for the needs of our community